Washington, District of Columbia
Traffic Map
Current Weather Conditions
Washington, District of Columbia
Broken Clouds
Broken Clouds
40°
Feels Like: 36°
Wind Chill: 36° Ceiling: 4000
Heat Index: 40° Visibility: 10mi
Dew Point: 33° Wind: 6mph
Humidity: 77% Direction: 350° (N)
Pressure: 30.05in Gusts: 0mph
Raw Report DataKDCA 271252Z 35005KT 10SM BKN040 BKN250 04/01 A3005 RMK AO2 RAB38E52 SLP176 P0000 T00440006
Traffic Incident Summary
Active as of:
Severity:
Category:
InformationThere was an issue retrieving the traffic information for this location. Please try a different location or try again shortly.
Advertisements
Track Severe Weather on mobile